Time;durP1;ratioP1;P1;durP2;ratioP2;P2;SDS_P1;SDS_P2;PMS_P1;PMS_P2;Temp;Humidity;BMP_temperature;BMP_pressure;BME280_temperature;BME280_humidity;BME280_pressure;Samples;Min_cycle;Max_cycle;Signal;HPM_P1;HPM_P2
2022/07/06 00:01:26;;;;;;;4.20;1.48;;;;;;;;;;5088203;28;20095;-68
2022/07/06 00:03:52;;;;;;;4.30;1.73;;;;;;;;;;5090118;28;20115;-68
2022/07/06 00:06:18;;;;;;;4.82;1.90;;;;;;;;;;5091361;28;20650;-67
2022/07/06 00:08:44;;;;;;;5.00;1.58;;;;;;;;;;5090778;28;20056;-67
2022/07/06 00:11:11;;;;;;;2.83;1.63;;;;;;;;;;5090025;28;20040;-68
2022/07/06 00:13:37;;;;;;;3.28;1.45;;;;;;;;;;5088224;28;20054;-68
2022/07/06 00:16:03;;;;;;;5.28;1.70;;;;;;;;;;5090078;28;20504;-67
2022/07/06 00:18:29;;;;;;;3.85;1.75;;;;;;;;;;5089912;28;20028;-67
2022/07/06 00:20:56;;;;;;;4.05;1.67;;;;;;;;;;5091863;28;20507;-68
2022/07/06 00:23:22;;;;;;;7.05;1.88;;;;;;;;;;5089766;28;20369;-67
2022/07/06 00:25:48;;;;;;;3.42;1.42;;;;;;;;;;5089577;28;20512;-68
2022/07/06 00:28:15;;;;;;;4.70;1.85;;;;;;;;;;5089634;28;20500;-67
2022/07/06 00:30:41;;;;;;;5.38;1.75;;;;;;;;;;5073923;28;20052;-68
2022/07/06 00:33:07;;;;;;;5.40;1.83;;;;;;;;;;5091678;28;20032;-68
2022/07/06 00:35:33;;;;;;;5.47;1.98;;;;;;;;;;5089807;28;20020;-66
2022/07/06 00:37:59;;;;;;;3.70;1.70;;;;;;;;;;5088320;28;20082;-67
2022/07/06 00:40:25;;;;;;;4.57;1.90;;;;;;;;;;5088363;28;20035;-68
2022/07/06 00:42:51;;;;;;;3.78;1.80;;;;;;;;;;5089181;28;20043;-68
2022/07/06 00:45:18;;;;;;;2.83;1.42;;;;;;;;;;5091009;28;20090;-68
2022/07/06 00:47:44;;;;;;;4.25;1.60;;;;;;;;;;5090365;28;20039;-68
2022/07/06 00:50:15;;;;;;;4.30;1.95;;;;;;;;;;5089602;28;20114;-67
2022/07/06 00:52:42;;;;;;;5.68;1.70;;;;;;;;;;5087928;28;20077;-67
2022/07/06 00:55:08;;;;;;;3.38;1.60;;;;;;;;;;5089578;28;20142;-68
2022/07/06 00:57:34;;;;;;;6.68;1.92;;;;;;;;;;5089226;28;20044;-67
2022/07/06 01:00:01;;;;;;;6.43;1.73;;;;;;;;;;5091408;28;20473;-68
2022/07/06 01:02:27;;;;;;;3.17;1.52;;;;;;;;;;5089725;28;20036;-67
2022/07/06 01:04:53;;;;;;;3.15;1.80;;;;;;;;;;5089359;28;20031;-68
2022/07/06 01:07:19;;;;;;;3.67;1.70;;;;;;;;;;5089476;28;20020;-67
2022/07/06 01:09:45;;;;;;;4.05;1.77;;;;;;;;;;5089329;28;20048;-68
2022/07/06 01:12:11;;;;;;;4.57;1.92;;;;;;;;;;5091344;28;20531;-68
2022/07/06 01:14:38;;;;;;;4.85;1.88;;;;;;;;;;5089954;28;20439;-67
2022/07/06 01:17:04;;;;;;;4.53;1.85;;;;;;;;;;5091491;28;20043;-67
2022/07/06 01:19:30;;;;;;;5.90;2.00;;;;;;;;;;5091547;28;20388;-68
2022/07/06 01:21:56;;;;;;;4.78;1.95;;;;;;;;;;5092785;28;20020;-66
2022/07/06 01:24:22;;;;;;;2.45;1.50;;;;;;;;;;5093949;28;20067;-68
2022/07/06 01:26:48;;;;;;;2.88;1.67;;;;;;;;;;5093870;28;20043;-67
2022/07/06 01:29:14;;;;;;;5.63;1.70;;;;;;;;;;5092564;28;20122;-68
2022/07/06 01:31:48;;;;;;;6.22;2.00;;;;;;;;;;5091289;28;20099;-68
2022/07/06 01:34:14;;;;;;;3.95;1.83;;;;;;;;;;5092899;28;20484;-68
2022/07/06 01:36:40;;;;;;;6.28;1.75;;;;;;;;;;5076598;28;20460;-67
2022/07/06 01:39:08;;;;;;;5.53;1.92;;;;;;;;;;5094595;28;20108;-68
2022/07/06 01:41:34;;;;;;;6.40;1.85;;;;;;;;;;5091901;28;20407;-68
2022/07/06 01:44:00;;;;;;;5.00;2.00;;;;;;;;;;5092464;28;20032;-68
2022/07/06 01:46:27;;;;;;;5.20;2.08;;;;;;;;;;5092371;28;20027;-68
2022/07/06 01:48:53;;;;;;;6.00;1.95;;;;;;;;;;5092244;28;20553;-68
2022/07/06 01:51:19;;;;;;;4.25;2.08;;;;;;;;;;5093946;28;20024;-68
2022/07/06 01:53:45;;;;;;;3.67;1.67;;;;;;;;;;5092982;28;20089;-68
2022/07/06 01:56:11;;;;;;;4.70;2.03;;;;;;;;;;5090395;28;20042;-68
2022/07/06 01:58:38;;;;;;;4.60;1.80;;;;;;;;;;5090592;28;20497;-68
2022/07/06 02:01:10;;;;;;;6.20;2.05;;;;;;;;;;5092151;28;20107;-68
2022/07/06 02:03:37;;;;;;;6.63;2.40;;;;;;;;;;5092076;28;20035;-68
2022/07/06 02:06:03;;;;;;;4.85;2.08;;;;;;;;;;5093806;28;20020;-68
2022/07/06 02:08:29;;;;;;;8.70;2.33;;;;;;;;;;5092086;28;20115;-68
2022/07/06 02:10:56;;;;;;;5.50;1.98;;;;;;;;;;5090040;28;20039;-69
2022/07/06 02:13:22;;;;;;;7.43;1.80;;;;;;;;;;5090556;28;20035;-69
2022/07/06 02:15:48;;;;;;;4.45;1.90;;;;;;;;;;5091864;28;20035;-69
2022/07/06 02:18:14;;;;;;;3.17;1.73;;;;;;;;;;5093395;28;20082;-68
2022/07/06 02:20:40;;;;;;;3.35;1.70;;;;;;;;;;5090772;28;20032;-68
2022/07/06 02:23:06;;;;;;;4.07;1.80;;;;;;;;;;5091799;28;20024;-67
2022/07/06 02:25:32;;;;;;;4.85;1.75;;;;;;;;;;5090989;28;20031;-68
2022/07/06 02:27:58;;;;;;;2.42;1.60;;;;;;;;;;5091686;28;20024;-67
2022/07/06 02:30:24;;;;;;;3.20;1.70;;;;;;;;;;5091906;28;20409;-68
2022/07/06 02:32:50;;;;;;;5.10;2.17;;;;;;;;;;5093173;28;20016;-68
2022/07/06 02:35:16;;;;;;;5.47;2.00;;;;;;;;;;5089939;28;20036;-68
2022/07/06 02:37:42;;;;;;;3.08;1.90;;;;;;;;;;5089765;28;20142;-67
2022/07/06 02:40:09;;;;;;;3.22;1.83;;;;;;;;;;5091393;28;20047;-68
2022/07/06 02:42:35;;;;;;;5.57;1.90;;;;;;;;;;5091711;28;20510;-68
2022/07/06 02:45:01;;;;;;;4.03;1.77;;;;;;;;;;5093317;28;20107;-69
2022/07/06 02:47:27;;;;;;;3.90;1.70;;;;;;;;;;5091545;28;20388;-68
2022/07/06 02:49:53;;;;;;;3.55;1.70;;;;;;;;;;5089485;28;20067;-68
2022/07/06 02:52:19;;;;;;;6.82;1.85;;;;;;;;;;5091003;28;20023;-69
2022/07/06 02:54:46;;;;;;;4.55;2.03;;;;;;;;;;5090829;28;20128;-68
2022/07/06 02:57:12;;;;;;;4.15;1.90;;;;;;;;;;5093090;28;20045;-68
2022/07/06 02:59:38;;;;;;;3.42;1.80;;;;;;;;;;5091371;28;20020;-69
2022/07/06 03:02:04;;;;;;;4.88;1.85;;;;;;;;;;5090951;28;20545;-67
2022/07/06 03:04:30;;;;;;;5.25;1.90;;;;;;;;;;5090678;28;20020;-68
2022/07/06 03:06:56;;;;;;;3.40;1.50;;;;;;;;;;5090957;28;20480;-67
2022/07/06 03:09:22;;;;;;;6.72;1.85;;;;;;;;;;5091214;28;20476;-68
2022/07/06 03:11:48;;;;;;;3.47;1.58;;;;;;;;;;5092345;28;20034;-67
2022/07/06 03:14:14;;;;;;;3.85;1.80;;;;;;;;;;5089320;28;20028;-68
2022/07/06 03:16:40;;;;;;;2.53;1.50;;;;;;;;;;5089155;28;20099;-68
2022/07/06 03:19:06;;;;;;;2.97;1.75;;;;;;;;;;5090597;28;20523;-69
2022/07/06 03:21:32;;;;;;;4.55;1.80;;;;;;;;;;5090243;28;20074;-68
2022/07/06 03:23:59;;;;;;;3.35;1.92;;;;;;;;;;5092510;28;20110;-66
2022/07/06 03:26:25;;;;;;;3.97;1.60;;;;;;;;;;5090477;28;20036;-68
2022/07/06 03:28:51;;;;;;;6.22;2.00;;;;;;;;;;5089228;28;20480;-66
2022/07/06 03:33:53;;;;;;;4.55;1.70;;;;;;;;;;6040692;22;20422;-67
2022/07/06 03:36:19;;;;;;;4.57;1.52;;;;;;;;;;5103666;22;20492;-66
2022/07/06 03:38:45;;;;;;;3.35;1.90;;;;;;;;;;5052322;28;20050;-67
2022/07/06 03:41:11;;;;;;;3.05;1.77;;;;;;;;;;5052173;28;20079;-66
2022/07/06 03:43:37;;;;;;;4.85;1.80;;;;;;;;;;5052258;28;20032;-67
2022/07/06 03:46:03;;;;;;;4.13;1.70;;;;;;;;;;5052480;28;20025;-65
2022/07/06 03:48:29;;;;;;;3.05;1.50;;;;;;;;;;5052202;28;20069;-67
2022/07/06 03:50:56;;;;;;;5.15;1.90;;;;;;;;;;5051762;28;20078;-66
2022/07/06 03:53:22;;;;;;;3.33;1.60;;;;;;;;;;5052725;28;20025;-67
2022/07/06 03:56:27;;;;;;;4.93;1.80;;;;;;;;;;5052059;28;20025;-67
2022/07/06 03:58:34;;;;;;;3.03;1.85;;;;;;;;;;5052163;28;20037;-67
2022/07/06 04:01:00;;;;;;;2.65;1.67;;;;;;;;;;5052458;28;20025;-66
2022/07/06 04:03:26;;;;;;;3.53;1.70;;;;;;;;;;5051939;28;20029;-67
2022/07/06 04:05:53;;;;;;;3.00;1.73;;;;;;;;;;5051725;28;20389;-66
2022/07/06 04:08:19;;;;;;;3.25;1.80;;;;;;;;;;5051880;28;20061;-65
2022/07/06 04:10:45;;;;;;;2.92;1.52;;;;;;;;;;5052175;28;20055;-67
2022/07/06 04:13:12;;;;;;;3.13;1.55;;;;;;;;;;5052124;28;20028;-66
2022/07/06 04:15:39;;;;;;;3.80;1.80;;;;;;;;;;5052187;28;20029;-66
2022/07/06 04:18:05;;;;;;;5.15;1.90;;;;;;;;;;5051827;28;20029;-67
2022/07/06 04:20:31;;;;;;;2.20;1.58;;;;;;;;;;5051611;28;20040;-67
2022/07/06 04:22:58;;;;;;;2.47;1.38;;;;;;;;;;5052223;28;20547;-67
2022/07/06 04:25:24;;;;;;;2.97;1.75;;;;;;;;;;5051871;28;20033;-67
2022/07/06 04:27:50;;;;;;;3.80;1.98;;;;;;;;;;5051734;28;20036;-66
2022/07/06 04:30:16;;;;;;;4.05;1.80;;;;;;;;;;5051801;28;20048;-65
2022/07/06 04:32:42;;;;;;;3.67;1.70;;;;;;;;;;5051610;28;20059;-67
2022/07/06 04:35:09;;;;;;;3.28;1.80;;;;;;;;;;5051468;28;20041;-67
2022/07/06 04:37:35;;;;;;;3.90;1.70;;;;;;;;;;5062063;28;20488;-67
2022/07/06 04:40:01;;;;;;;2.33;1.55;;;;;;;;;;5071821;28;20021;-67
2022/07/06 04:42:27;;;;;;;4.53;1.70;;;;;;;;;;5071790;28;20074;-66
2022/07/06 04:44:53;;;;;;;4.18;1.98;;;;;;;;;;5071665;28;20039;-64
2022/07/06 04:47:19;;;;;;;3.72;1.63;;;;;;;;;;5072119;28;20028;-65
2022/07/06 04:49:45;;;;;;;4.18;2.00;;;;;;;;;;5074972;28;20063;-66
2022/07/06 04:52:11;;;;;;;4.40;1.77;;;;;;;;;;5075412;28;20020;-66
2022/07/06 04:54:37;;;;;;;3.47;1.60;;;;;;;;;;5075704;28;20094;-66
2022/07/06 04:57:03;;;;;;;4.10;1.75;;;;;;;;;;5075371;28;20080;-67
2022/07/06 04:59:29;;;;;;;3.90;1.75;;;;;;;;;;5075109;28;20477;-66
2022/07/06 05:01:55;;;;;;;3.33;1.60;;;;;;;;;;5075368;28;20029;-65
2022/07/06 05:04:22;;;;;;;3.85;1.70;;;;;;;;;;5074982;28;20029;-67
2022/07/06 05:06:48;;;;;;;2.85;1.75;;;;;;;;;;5074975;28;20412;-66
2022/07/06 05:09:14;;;;;;;3.50;1.80;;;;;;;;;;5075501;28;20111;-67
2022/07/06 05:11:40;;;;;;;3.13;2.00;;;;;;;;;;5075007;28;20103;-66
2022/07/06 05:14:06;;;;;;;4.03;1.73;;;;;;;;;;5075016;28;20431;-67
2022/07/06 05:16:32;;;;;;;2.15;1.67;;;;;;;;;;5075014;28;20111;-67
2022/07/06 05:18:58;;;;;;;4.43;1.75;;;;;;;;;;5074529;28;20027;-66
2022/07/06 05:21:24;;;;;;;2.97;1.85;;;;;;;;;;5074889;28;20040;-67
2022/07/06 05:23:51;;;;;;;3.25;1.50;;;;;;;;;;5075101;28;20019;-66
2022/07/06 05:26:17;;;;;;;4.35;1.88;;;;;;;;;;5074383;28;20465;-67
2022/07/06 05:28:43;;;;;;;2.13;1.60;;;;;;;;;;5074914;28;20111;-66
2022/07/06 05:31:09;;;;;;;3.60;1.60;;;;;;;;;;5074759;28;20028;-66
2022/07/06 05:33:35;;;;;;;4.22;1.77;;;;;;;;;;5074347;28;20486;-66
2022/07/06 05:36:01;;;;;;;3.33;1.70;;;;;;;;;;5074905;28;20120;-66
2022/07/06 05:38:27;;;;;;;4.53;1.77;;;;;;;;;;5074204;28;20056;-65
2022/07/06 05:40:53;;;;;;;3.22;1.50;;;;;;;;;;5074874;28;20067;-66
2022/07/06 05:43:19;;;;;;;2.58;1.70;;;;;;;;;;5074464;28;20035;-65
2022/07/06 05:45:45;;;;;;;5.50;1.83;;;;;;;;;;5074401;28;20142;-65
2022/07/06 05:50:56;;;;;;;3.85;1.50;;;;;;;;;;5074417;28;20094;-66
2022/07/06 05:53:22;;;;;;;4.10;1.55;;;;;;;;;;5074334;28;20082;-64
2022/07/06 05:55:48;;;;;;;4.13;1.58;;;;;;;;;;5074221;28;20085;-66
2022/07/06 05:58:14;;;;;;;3.35;1.63;;;;;;;;;;5074122;28;20032;-65
2022/07/06 06:00:40;;;;;;;3.88;1.60;;;;;;;;;;5073754;28;20038;-66
2022/07/06 06:03:06;;;;;;;3.67;1.50;;;;;;;;;;5074064;28;20106;-66
2022/07/06 06:05:33;;;;;;;2.95;1.80;;;;;;;;;;5074099;28;20052;-65
2022/07/06 06:07:59;;;;;;;4.30;1.40;;;;;;;;;;5072963;28;20560;-65
2022/07/06 06:10:25;;;;;;;3.40;1.48;;;;;;;;;;5074091;28;20039;-66
2022/07/06 06:12:51;;;;;;;2.35;1.60;;;;;;;;;;5073772;28;20021;-65
2022/07/06 06:15:17;;;;;;;3.15;1.90;;;;;;;;;;5073893;28;20032;-64
2022/07/06 06:17:43;;;;;;;3.53;1.58;;;;;;;;;;5073471;28;20507;-65
2022/07/06 06:20:10;;;;;;;3.17;1.40;;;;;;;;;;5074113;28;20024;-65
2022/07/06 06:22:56;;;;;;;4.18;1.52;;;;;;;;;;5073824;28;20028;-64
2022/07/06 06:25:28;;;;;;;3.67;1.98;;;;;;;;;;5073824;28;20020;-65
2022/07/06 06:27:54;;;;;;;10.07;1.73;;;;;;;;;;5073270;28;20032;-64
2022/07/06 06:30:20;;;;;;;3.95;1.50;;;;;;;;;;5073229;28;20082;-65
2022/07/06 06:32:46;;;;;;;2.58;1.60;;;;;;;;;;5073926;28;20054;-65
2022/07/06 06:35:12;;;;;;;3.60;1.63;;;;;;;;;;5073349;28;20102;-65
2022/07/06 06:37:38;;;;;;;3.08;1.60;;;;;;;;;;5073188;28;20650;-65
2022/07/06 06:40:05;;;;;;;3.35;1.40;;;;;;;;;;5073725;28;20119;-65
2022/07/06 06:42:32;;;;;;;2.55;1.35;;;;;;;;;;5073238;28;20388;-66
2022/07/06 06:44:58;;;;;;;8.00;1.70;;;;;;;;;;5072822;28;20472;-66
2022/07/06 06:47:24;;;;;;;6.93;1.73;;;;;;;;;;5073332;28;20029;-66
2022/07/06 06:49:50;;;;;;;15.63;2.90;;;;;;;;;;5073177;28;20043;-65
2022/07/06 06:52:16;;;;;;;8.82;2.47;;;;;;;;;;5073508;28;20024;-64
2022/07/06 06:54:42;;;;;;;28.50;6.10;;;;;;;;;;5072788;28;20488;-65
2022/07/06 06:57:08;;;;;;;241.75;39.40;;;;;;;;;;5073095;28;20020;-65
2022/07/06 06:59:34;;;;;;;83.47;14.75;;;;;;;;;;5072810;28;20298;-66
2022/07/06 07:02:00;;;;;;;391.30;65.28;;;;;;;;;;5072885;28;20039;-66
2022/07/06 07:04:26;;;;;;;263.70;47.13;;;;;;;;;;5072940;28;20033;-66
2022/07/06 07:06:52;;;;;;;312.30;54.97;;;;;;;;;;5073139;28;20025;-67
2022/07/06 07:09:18;;;;;;;247.45;42.47;;;;;;;;;;5072841;28;20056;-66
2022/07/06 07:11:44;;;;;;;89.70;17.83;;;;;;;;;;5072118;28;20024;-65
2022/07/06 07:14:10;;;;;;;7.93;2.75;;;;;;;;;;5072372;28;20028;-66
2022/07/06 07:16:36;;;;;;;72.88;15.25;;;;;;;;;;5072736;28;20028;-66
2022/07/06 07:19:02;;;;;;;22.42;5.43;;;;;;;;;;5071862;28;20016;-65
2022/07/06 07:21:28;;;;;;;19.75;5.32;;;;;;;;;;5072567;28;20025;-66
2022/07/06 07:23:54;;;;;;;22.30;5.03;;;;;;;;;;5071570;28;20067;-66
2022/07/06 07:26:20;;;;;;;36.42;7.43;;;;;;;;;;5070382;28;20039;-64
2022/07/06 07:28:46;;;;;;;3.55;1.52;;;;;;;;;;5071335;28;20028;-64
2022/07/06 07:31:12;;;;;;;8.10;2.25;;;;;;;;;;5071356;28;20077;-64
2022/07/06 07:33:39;;;;;;;46.60;11.02;;;;;;;;;;5071577;28;20025;-66
2022/07/06 07:36:08;;;;;;;4.95;1.70;;;;;;;;;;5071773;28;20064;-67
2022/07/06 07:38:34;;;;;;;43.30;9.70;;;;;;;;;;5070804;28;20031;-66
2022/07/06 07:41:00;;;;;;;4.63;1.50;;;;;;;;;;5070903;28;20024;-67
2022/07/06 07:43:26;;;;;;;2.95;1.50;;;;;;;;;;5069753;28;20103;-66
2022/07/06 07:45:52;;;;;;;5.95;2.08;;;;;;;;;;5071440;28;20048;-67
2022/07/06 07:48:18;;;;;;;29.67;7.47;;;;;;;;;;5071122;28;20111;-66
2022/07/06 07:50:44;;;;;;;13.15;4.47;;;;;;;;;;5071809;28;20047;-67
2022/07/06 07:53:10;;;;;;;10.00;2.88;;;;;;;;;;5071214;28;20042;-67
2022/07/06 07:55:36;;;;;;;7.43;2.55;;;;;;;;;;5070914;28;20032;-67
2022/07/06 07:58:02;;;;;;;2.72;1.30;;;;;;;;;;5070902;28;20097;-67
2022/07/06 08:00:29;;;;;;;30.95;9.82;;;;;;;;;;5071344;28;20059;-67
2022/07/06 08:02:55;;;;;;;16.83;3.67;;;;;;;;;;5071199;28;20024;-67
2022/07/06 08:05:22;;;;;;;9.43;2.58;;;;;;;;;;5071473;28;20048;-67
2022/07/06 08:07:48;;;;;;;10.13;2.72;;;;;;;;;;5071356;28;20027;-66
2022/07/06 08:10:14;;;;;;;2.38;1.63;;;;;;;;;;5070924;28;20048;-67
2022/07/06 08:12:40;;;;;;;10.73;2.90;;;;;;;;;;5070903;28;20021;-67
2022/07/06 08:15:07;;;;;;;3.45;1.55;;;;;;;;;;5071568;28;20032;-67
2022/07/06 08:17:33;;;;;;;5.82;2.20;;;;;;;;;;5071166;28;20496;-67
2022/07/06 08:19:59;;;;;;;4.40;1.65;;;;;;;;;;5071010;28;20027;-67
2022/07/06 08:22:25;;;;;;;11.18;4.25;;;;;;;;;;5071283;28;20442;-67
2022/07/06 08:24:51;;;;;;;10.13;4.00;;;;;;;;;;5074971;28;20040;-67
2022/07/06 08:27:17;;;;;;;2.42;1.33;;;;;;;;;;5074760;28;20146;-66
2022/07/06 08:29:43;;;;;;;1.60;1.08;;;;;;;;;;5074862;28;20123;-65
2022/07/06 08:32:09;;;;;;;3.70;1.55;;;;;;;;;;5075273;28;20229;-68
2022/07/06 08:34:35;;;;;;;4.68;1.65;;;;;;;;;;5074968;28;20397;-67
2022/07/06 08:37:01;;;;;;;2.92;1.50;;;;;;;;;;5074528;28;20410;-67
2022/07/06 08:39:27;;;;;;;5.60;2.03;;;;;;;;;;5074878;28;20031;-67
2022/07/06 08:41:55;;;;;;;12.13;4.45;;;;;;;;;;5074512;28;20021;-67
2022/07/06 08:44:21;;;;;;;12.90;4.18;;;;;;;;;;5074677;28;20503;-67
2022/07/06 08:46:49;;;;;;;2.53;1.52;;;;;;;;;;5075012;28;20111;-67
2022/07/06 08:49:16;;;;;;;4.75;1.50;;;;;;;;;;5074623;28;20040;-67
2022/07/06 08:51:42;;;;;;;3.38;1.35;;;;;;;;;;5074302;28;20021;-65
2022/07/06 08:54:09;;;;;;;5.00;1.30;;;;;;;;;;5074158;28;20108;-65
2022/07/06 08:56:35;;;;;;;3.45;1.50;;;;;;;;;;5073883;28;20611;-66
2022/07/06 08:59:01;;;;;;;2.83;1.42;;;;;;;;;;5073579;28;20032;-67
2022/07/06 09:01:27;;;;;;;3.72;1.63;;;;;;;;;;5073671;28;20082;-65
2022/07/06 09:03:55;;;;;;;2.13;1.30;;;;;;;;;;5074229;28;20020;-66
2022/07/06 09:06:24;;;;;;;3.92;1.70;;;;;;;;;;5073921;28;20107;-66
2022/07/06 09:08:53;;;;;;;3.08;1.70;;;;;;;;;;5073563;28;20036;-65
2022/07/06 09:11:19;;;;;;;3.97;1.50;;;;;;;;;;5073908;28;20068;-66
2022/07/06 09:13:45;;;;;;;2.33;1.40;;;;;;;;;;5073970;28;20039;-66
2022/07/06 09:16:12;;;;;;;3.97;1.38;;;;;;;;;;5072715;28;20547;-66
2022/07/06 09:18:44;;;;;;;1.92;1.50;;;;;;;;;;5074921;28;20168;-66
2022/07/06 09:21:10;;;;;;;7.00;2.75;;;;;;;;;;5074765;28;20496;-66
2022/07/06 09:23:36;;;;;;;5.03;1.73;;;;;;;;;;5074085;28;20056;-65
2022/07/06 09:26:08;;;;;;;4.22;1.75;;;;;;;;;;5074109;28;20025;-66
2022/07/06 09:28:44;;;;;;;3.78;1.60;;;;;;;;;;5074139;28;20024;-66
2022/07/06 09:31:10;;;;;;;3.35;1.60;;;;;;;;;;5074423;28;20131;-66
2022/07/06 09:33:36;;;;;;;4.65;1.45;;;;;;;;;;5074566;28;20028;-65
2022/07/06 09:36:03;;;;;;;4.90;1.52;;;;;;;;;;5073457;28;20098;-66
2022/07/06 09:38:29;;;;;;;3.50;1.40;;;;;;;;;;5074378;28;20052;-67
2022/07/06 09:40:55;;;;;;;3.03;1.40;;;;;;;;;;5074218;28;20074;-66
2022/07/06 09:43:22;;;;;;;2.00;1.40;;;;;;;;;;5074086;28;20040;-65
2022/07/06 09:45:49;;;;;;;3.90;1.90;;;;;;;;;;5074443;28;20493;-66
2022/07/06 09:48:21;;;;;;;3.80;1.75;;;;;;;;;;5074403;28;20031;-67
2022/07/06 09:50:48;;;;;;;3.72;1.60;;;;;;;;;;5074275;28;20055;-68
2022/07/06 09:53:14;;;;;;;3.05;1.27;;;;;;;;;;5074397;28;20025;-67
2022/07/06 09:55:45;;;;;;;3.90;1.20;;;;;;;;;;5074191;28;20086;-67
2022/07/06 09:58:11;;;;;;;3.10;1.30;;;;;;;;;;5074106;28;20028;-67
2022/07/06 10:00:38;;;;;;;2.45;1.25;;;;;;;;;;5074154;28;20031;-67
2022/07/06 10:03:05;;;;;;;3.50;1.48;;;;;;;;;;5074076;28;20029;-67
2022/07/06 10:05:31;;;;;;;3.80;1.30;;;;;;;;;;5073948;28;20040;-67
2022/07/06 10:07:58;;;;;;;3.03;1.20;;;;;;;;;;5073785;28;20029;-66
2022/07/06 10:10:29;;;;;;;1.63;1.50;;;;;;;;;;5073993;28;20131;-68
2022/07/06 10:12:58;;;;;;;2.95;1.38;;;;;;;;;;5073601;28;20017;-66
2022/07/06 10:15:25;;;;;;;1.73;1.10;;;;;;;;;;5073437;28;20028;-67
2022/07/06 10:17:52;;;;;;;2.78;1.20;;;;;;;;;;5073354;28;20025;-66
2022/07/06 10:20:21;;;;;;;2.97;1.17;;;;;;;;;;5073990;28;20031;-67
2022/07/06 10:22:48;;;;;;;2.15;1.40;;;;;;;;;;5073162;28;20032;-67
2022/07/06 10:25:17;;;;;;;2.45;1.20;;;;;;;;;;5073758;28;20053;-67
2022/07/06 10:27:45;;;;;;;4.45;1.55;;;;;;;;;;5073523;28;20520;-67
2022/07/06 10:30:11;;;;;;;2.70;1.30;;;;;;;;;;5073436;28;20040;-68
2022/07/06 10:32:39;;;;;;;2.25;1.10;;;;;;;;;;5073804;28;20039;-67
2022/07/06 10:35:06;;;;;;;2.78;1.23;;;;;;;;;;5073121;28;20098;-67
2022/07/06 10:37:33;;;;;;;1.90;1.00;;;;;;;;;;5072957;28;20023;-66
2022/07/06 10:42:56;;;;;;;3.00;1.33;;;;;;;;;;5072866;28;20124;-68
2022/07/06 10:45:29;;;;;;;2.90;1.20;;;;;;;;;;5073133;28;20384;-67
2022/07/06 10:48:15;;;;;;;1.48;1.20;;;;;;;;;;5073179;28;20035;-67
2022/07/06 10:50:54;;;;;;;2.92;1.45;;;;;;;;;;5073404;28;20055;-67
2022/07/06 10:53:26;;;;;;;2.55;1.20;;;;;;;;;;5072718;28;20045;-66
2022/07/06 10:55:53;;;;;;;3.00;1.45;;;;;;;;;;5072887;28;20021;-67
2022/07/06 10:58:38;;;;;;;2.65;1.40;;;;;;;;;;5073009;28;20032;-66
2022/07/06 11:01:05;;;;;;;3.10;1.30;;;;;;;;;;5072929;28;20538;-67
2022/07/06 11:03:31;;;;;;;2.72;1.30;;;;;;;;;;5072775;28;20035;-67
2022/07/06 11:06:01;;;;;;;3.22;1.20;;;;;;;;;;5072825;28;20039;-67
2022/07/06 11:08:46;;;;;;;5.18;1.40;;;;;;;;;;5072746;28;20078;-67
2022/07/06 11:11:14;;;;;;;3.15;1.20;;;;;;;;;;5072753;28;20125;-67
2022/07/06 11:13:57;;;;;;;2.13;1.20;;;;;;;;;;5072716;28;20027;-69
2022/07/06 11:16:26;;;;;;;2.72;1.40;;;;;;;;;;5072536;28;20028;-69
2022/07/06 11:19:02;;;;;;;3.10;1.20;;;;;;;;;;5072531;28;20051;-69
2022/07/06 11:21:35;;;;;;;4.88;1.50;;;;;;;;;;5072529;28;20468;-69
2022/07/06 11:24:02;;;;;;;4.03;1.55;;;;;;;;;;5072513;28;20550;-69
2022/07/06 11:26:28;;;;;;;3.20;1.60;;;;;;;;;;5072454;28;20032;-68
2022/07/06 11:28:54;;;;;;;3.05;1.30;;;;;;;;;;5072370;28;20571;-69
2022/07/06 11:31:20;;;;;;;2.00;1.38;;;;;;;;;;5072728;28;20024;-68
2022/07/06 11:33:47;;;;;;;2.05;1.40;;;;;;;;;;5072347;28;20107;-69
2022/07/06 11:36:14;;;;;;;4.13;1.45;;;;;;;;;;5072042;28;20111;-68
2022/07/06 11:38:41;;;;;;;4.28;1.38;;;;;;;;;;5072257;28;20032;-68
2022/07/06 11:41:07;;;;;;;7.80;1.50;;;;;;;;;;5072342;28;20056;-68
2022/07/06 11:43:33;;;;;;;1.77;1.25;;;;;;;;;;5072637;28;20554;-68
2022/07/06 11:45:59;;;;;;;2.72;1.50;;;;;;;;;;5072208;28;20179;-68
2022/07/06 11:48:25;;;;;;;5.15;1.60;;;;;;;;;;5072106;28;20059;-67
2022/07/06 11:50:59;;;;;;;5.22;1.60;;;;;;;;;;5071713;28;20040;-68
2022/07/06 11:53:25;;;;;;;;;;;;;;;;;;5072697;28;20082;-67
2022/07/06 11:55:51;;;;;;;2.65;1.50;;;;;;;;;;5072141;28;20326;-68
2022/07/06 11:58:21;;;;;;;4.72;1.38;;;;;;;;;;5072020;28;20029;-68
2022/07/06 12:01:03;;;;;;;4.32;1.40;;;;;;;;;;5072041;28;20507;-67
2022/07/06 12:03:30;;;;;;;2.25;1.30;;;;;;;;;;5072068;28;20493;-68
2022/07/06 12:05:56;;;;;;;3.55;1.40;;;;;;;;;;5071702;28;20055;-68
2022/07/06 12:08:22;;;;;;;2.72;1.30;;;;;;;;;;5072235;28;20021;-68
2022/07/06 12:10:48;;;;;;;3.15;1.17;;;;;;;;;;5071973;28;20029;-68
2022/07/06 12:13:14;;;;;;;2.45;1.40;;;;;;;;;;5072021;28;20236;-68
2022/07/06 12:15:40;;;;;;;2.03;1.40;;;;;;;;;;5071763;28;20039;-68
2022/07/06 12:18:06;;;;;;;3.90;1.10;;;;;;;;;;5071902;28;20115;-67
2022/07/06 12:20:32;;;;;;;3.78;1.40;;;;;;;;;;5071999;28;20027;-68
2022/07/06 12:23:02;;;;;;;9.00;1.50;;;;;;;;;;5071814;28;20094;-69
2022/07/06 12:25:32;;;;;;;3.88;1.15;;;;;;;;;;5071811;28;20032;-68
2022/07/06 12:27:58;;;;;;;1.92;1.20;;;;;;;;;;5071964;28;20487;-68
2022/07/06 12:30:24;;;;;;;2.45;1.30;;;;;;;;;;5071986;28;20032;-68
2022/07/06 12:33:08;;;;;;;2.83;1.30;;;;;;;;;;5071452;28;20032;-68
2022/07/06 12:35:35;;;;;;;3.25;1.38;;;;;;;;;;5071435;28;20055;-67
2022/07/06 12:38:01;;;;;;;5.50;1.20;;;;;;;;;;5071591;28;20038;-68
2022/07/06 12:40:27;;;;;;;2.75;1.20;;;;;;;;;;5072450;28;20124;-67
2022/07/06 12:42:54;;;;;;;5.28;1.25;;;;;;;;;;5071567;28;20107;-68
2022/07/06 12:45:20;;;;;;;2.97;1.30;;;;;;;;;;5071798;28;20116;-68
2022/07/06 12:48:05;;;;;;;2.05;1.10;;;;;;;;;;5071434;28;20033;-68
2022/07/06 12:50:35;;;;;;;2.15;1.17;;;;;;;;;;5072047;28;20123;-68
2022/07/06 12:53:02;;;;;;;2.20;1.20;;;;;;;;;;5070249;28;20032;-68
2022/07/06 12:55:29;;;;;;;1.75;1.10;;;;;;;;;;5071507;28;20078;-68
2022/07/06 12:57:56;;;;;;;1.42;1.10;;;;;;;;;;5071810;28;20048;-69
2022/07/06 13:00:22;;;;;;;4.63;1.10;;;;;;;;;;5071494;28;20024;-68
2022/07/06 13:02:56;;;;;;;4.72;1.55;;;;;;;;;;5071731;28;20435;-68
2022/07/06 13:05:28;;;;;;;1.63;1.10;;;;;;;;;;5070096;28;20381;-68
2022/07/06 13:07:55;;;;;;;1.27;1.10;;;;;;;;;;5071544;28;20026;-68
2022/07/06 13:10:22;;;;;;;2.45;1.10;;;;;;;;;;5074261;28;20044;-68
2022/07/06 13:12:48;;;;;;;2.30;1.10;;;;;;;;;;5075103;28;20048;-67
2022/07/06 13:15:14;;;;;;;3.33;1.00;;;;;;;;;;5075340;28;20056;-68
2022/07/06 13:17:40;;;;;;;1.60;1.25;;;;;;;;;;5074583;28;20035;-67
2022/07/06 13:20:08;;;;;;;6.40;1.30;;;;;;;;;;5075089;28;20020;-68
2022/07/06 13:22:34;;;;;;;3.65;1.40;;;;;;;;;;5074974;28;20476;-68
2022/07/06 13:25:00;;;;;;;2.28;1.33;;;;;;;;;;5074724;28;20016;-68
2022/07/06 13:27:26;;;;;;;2.40;1.10;;;;;;;;;;5075038;28;20031;-67
2022/07/06 13:29:52;;;;;;;2.40;1.35;;;;;;;;;;5074663;28;20052;-68
2022/07/06 13:32:18;;;;;;;3.17;1.42;;;;;;;;;;5074259;28;20048;-67
2022/07/06 13:34:44;;;;;;;1.95;1.30;;;;;;;;;;5074422;28;20029;-68
2022/07/06 13:37:10;;;;;;;4.22;1.40;;;;;;;;;;5073088;28;20043;-67
2022/07/06 13:39:36;;;;;;;4.40;1.30;;;;;;;;;;5075105;28;20028;-67
2022/07/06 13:42:02;;;;;;;1.42;1.10;;;;;;;;;;5074371;28;20485;-67
2022/07/06 13:44:29;;;;;;;1.42;1.05;;;;;;;;;;5074385;28;20094;-67
2022/07/06 13:46:55;;;;;;;2.47;1.17;;;;;;;;;;5074039;28;20477;-68
2022/07/06 13:49:21;;;;;;;3.22;1.30;;;;;;;;;;5074643;28;20119;-67
2022/07/06 13:51:47;;;;;;;1.88;1.30;;;;;;;;;;5074497;28;20051;-68
2022/07/06 13:54:13;;;;;;;1.98;1.33;;;;;;;;;;5074292;28;20033;-67
2022/07/06 13:56:40;;;;;;;2.17;1.20;;;;;;;;;;5074227;28;20029;-67
2022/07/06 13:59:06;;;;;;;2.72;1.65;;;;;;;;;;5074593;28;20472;-67
2022/07/06 14:01:32;;;;;;;1.88;1.20;;;;;;;;;;5073915;28;20021;-67
2022/07/06 14:03:58;;;;;;;3.58;1.35;;;;;;;;;;5074205;28;20060;-67
2022/07/06 14:06:24;;;;;;;2.78;1.40;;;;;;;;;;5074138;28;20021;-67
2022/07/06 14:08:51;;;;;;;1.63;1.30;;;;;;;;;;5073696;28;20028;-67
2022/07/06 14:11:17;;;;;;;2.15;1.20;;;;;;;;;;5074353;28;20397;-67
2022/07/06 14:13:43;;;;;;;1.40;1.30;;;;;;;;;;5073865;28;20077;-68
2022/07/06 14:16:10;;;;;;;2.92;1.48;;;;;;;;;;5073177;28;20560;-67
2022/07/06 14:18:36;;;;;;;5.60;1.50;;;;;;;;;;5074311;28;20052;-67
2022/07/06 14:21:03;;;;;;;3.50;1.50;;;;;;;;;;5073156;28;20029;-67
2022/07/06 14:23:29;;;;;;;4.00;1.35;;;;;;;;;;5073673;28;20029;-68
2022/07/06 14:25:56;;;;;;;2.22;1.35;;;;;;;;;;5073628;28;20105;-67
2022/07/06 14:28:23;;;;;;;2.88;1.35;;;;;;;;;;5073496;28;20017;-68
2022/07/06 14:30:49;;;;;;;3.95;1.63;;;;;;;;;;5073640;28;20068;-67
2022/07/06 14:33:15;;;;;;;3.13;1.45;;;;;;;;;;5073508;28;20514;-68
2022/07/06 14:35:43;;;;;;;1.60;1.42;;;;;;;;;;5072032;28;20436;-68
2022/07/06 14:38:10;;;;;;;4.28;1.27;;;;;;;;;;5073287;28;20036;-67
2022/07/06 14:40:36;;;;;;;4.95;1.50;;;;;;;;;;5073401;28;20067;-67
2022/07/06 14:43:03;;;;;;;3.13;1.50;;;;;;;;;;5073654;28;20583;-68
2022/07/06 14:45:29;;;;;;;2.67;1.33;;;;;;;;;;5072954;28;20378;-67
2022/07/06 14:47:55;;;;;;;2.58;1.50;;;;;;;;;;5073359;28;20479;-68